Time;durP1;ratioP1;P1;durP2;ratioP2;P2;SDS_P1;SDS_P2;PMS_P1;PMS_P2;Temp;Humidity;BMP_temperature;BMP_pressure;BME280_temperature;BME280_humidity;BME280_pressure;Samples;Min_cycle;Max_cycle;Signal;HPM_P1;HPM_P2
2022/09/08 00:00:01;;;;;;;7.47;4.10;;;;;;;20.75;50.19;100013.41;5052818;28;20432;-37
2022/09/08 00:02:26;;;;;;;5.00;4.10;;;;;;;20.79;49.97;100006.44;5052559;28;20025;-37
2022/09/08 00:04:52;;;;;;;5.15;4.00;;;;;;;20.69;50.66;100006.38;5051964;28;20036;-37
2022/09/08 00:07:18;;;;;;;5.93;3.85;;;;;;;20.81;49.74;100009.69;5052003;28;20032;-37
2022/09/08 00:09:44;;;;;;;5.40;4.00;;;;;;;20.76;50.15;100020.47;5052630;28;20040;-37
2022/09/08 00:12:12;;;;;;;6.38;4.07;;;;;;;20.69;50.08;100020.72;5052532;28;20101;-37
2022/09/08 00:14:38;;;;;;;7.28;4.32;;;;;;;20.79;50.16;100024.53;5052197;28;20032;-36
2022/09/08 00:17:03;;;;;;;6.32;4.28;;;;;;;20.84;49.90;100019.13;5052055;28;20025;-37
2022/09/08 00:19:29;;;;;;;11.90;4.55;;;;;;;20.85;49.86;100013.47;5052370;28;20393;-36
2022/09/08 00:21:54;;;;;;;7.65;4.15;;;;;;;20.81;50.19;100011.53;5052374;28;20436;-37
2022/09/08 00:24:20;;;;;;;7.80;4.30;;;;;;;20.74;50.19;100003.69;5052065;28;20404;-36
2022/09/08 00:26:45;;;;;;;7.13;4.25;;;;;;;20.74;50.28;100019.91;5052088;28;20044;-36
2022/09/08 00:29:11;;;;;;;7.07;4.30;;;;;;;20.78;49.93;100017.50;5052553;28;20171;-36
2022/09/08 00:31:40;;;;;;;7.10;4.72;;;;;;;20.72;50.26;100023.97;5052305;28;20125;-37
2022/09/08 00:34:06;;;;;;;7.22;4.32;;;;;;;20.73;50.18;100020.97;5052199;28;20109;-37
2022/09/08 00:36:33;;;;;;;6.90;4.50;;;;;;;20.55;50.70;100016.03;5051851;28;20087;-37
2022/09/08 00:39:00;;;;;;;9.00;4.97;;;;;;;20.29;51.25;100016.66;5051747;28;20473;-36
2022/09/08 00:41:28;;;;;;;6.25;4.47;;;;;;;20.44;50.70;100012.44;5052107;28;20102;-36
2022/09/08 00:44:00;;;;;;;5.85;4.50;;;;;;;20.51;50.22;100019.22;5051877;28;20075;-36
2022/09/08 00:46:35;;;;;;;6.70;4.43;;;;;;;20.49;50.25;100026.00;5051823;28;20020;-36
2022/09/08 00:49:11;;;;;;;7.15;4.30;;;;;;;20.38;51.32;100024.31;5060043;28;20024;-36
2022/09/08 00:51:42;;;;;;;5.85;4.50;;;;;;;20.41;51.26;100031.88;5071963;28;20436;-36
2022/09/08 00:54:10;;;;;;;5.90;4.05;;;;;;;20.36;51.02;100034.56;5071695;28;20017;-36
2022/09/08 00:56:37;;;;;;;8.32;4.53;;;;;;;20.28;51.15;100028.56;5071607;28;20028;-37
2022/09/08 00:59:03;;;;;;;8.45;4.40;;;;;;;20.45;50.53;100033.81;5071453;28;20107;-37
2022/09/08 01:01:32;;;;;;;8.25;4.15;;;;;;;20.43;50.41;100033.25;5071572;28;20366;-37
2022/09/08 01:03:58;;;;;;;5.00;3.90;;;;;;;20.49;50.37;100039.50;5071877;28;20142;-37
2022/09/08 01:15:01;;;;;;;7.35;4.15;;;;;;;20.15;51.59;100042.53;5071603;28;20085;-38
2022/09/08 01:17:29;;;;;;;9.18;4.63;;;;;;;20.17;51.74;100045.78;5053379;28;20053;-36
2022/09/08 01:19:56;;;;;;;8.10;4.55;;;;;;;20.29;50.83;100038.28;5050990;28;20111;-35
2022/09/08 01:22:40;;;;;;;7.45;4.95;;;;;;;20.27;51.63;100039.63;5051511;28;20024;-36
2022/09/08 01:25:47;;;;;;;7.63;4.40;;;;;;;20.36;50.95;100039.97;5051275;28;20033;-34
2022/09/08 01:28:21;;;;;;;5.35;4.20;;;;;;;20.44;50.80;100031.34;5051167;28;20024;-36
2022/09/08 01:30:47;;;;;;;4.85;4.13;;;;;;;20.37;50.86;100036.19;5050762;28;20059;-35
2022/09/08 01:33:14;;;;;;;7.50;4.78;;;;;;;20.34;51.65;100026.72;5051056;28;20017;-36
2022/09/08 01:35:40;;;;;;;5.55;4.28;;;;;;;20.31;51.51;100035.31;5050846;28;20338;-36
2022/09/08 01:38:07;;;;;;;6.82;4.20;;;;;;;20.32;51.06;100028.88;5050963;28;20029;-35
2022/09/08 01:40:33;;;;;;;6.63;4.50;;;;;;;20.31;51.63;100029.94;5050481;28;20385;-37
2022/09/08 01:42:58;;;;;;;9.10;4.60;;;;;;;20.09;52.16;100028.16;5050684;28;20154;-36
2022/09/08 01:45:24;;;;;;;6.63;4.40;;;;;;;20.08;52.03;100026.53;5050879;28;20021;-37
2022/09/08 01:47:50;;;;;;;6.53;4.43;;;;;;;20.00;52.14;100028.91;5050461;28;20052;-36
2022/09/08 01:50:16;;;;;;;7.40;4.47;;;;;;;20.00;52.34;100029.72;5050007;28;20090;-36
2022/09/08 01:52:41;;;;;;;6.38;4.68;;;;;;;19.80;52.85;100022.28;5050357;28;20112;-36
2022/09/08 01:55:07;;;;;;;6.68;4.72;;;;;;;19.89;52.55;100031.53;5050566;28;20039;-36
2022/09/08 01:57:33;;;;;;;7.38;4.65;;;;;;;19.87;52.46;100030.16;5050535;28;20043;-36
2022/09/08 01:59:58;;;;;;;5.28;4.78;;;;;;;19.96;52.41;100025.91;5050525;28;20405;-36
2022/09/08 02:02:24;;;;;;;7.53;5.00;;;;;;;19.73;53.01;100030.59;5049202;28;20465;-36
2022/09/08 02:04:49;;;;;;;5.88;4.43;;;;;;;19.73;53.33;100027.09;5049057;28;20093;-36
2022/09/08 02:07:14;;;;;;;6.60;4.80;;;;;;;19.83;52.97;100016.34;5049901;28;20035;-36
2022/09/08 02:09:40;;;;;;;6.60;4.75;;;;;;;19.86;52.73;100015.06;5049420;28;20503;-36
2022/09/08 02:12:05;;;;;;;6.60;4.75;;;;;;;19.84;52.66;100012.59;5049332;28;20400;-36
2022/09/08 02:14:31;;;;;;;7.25;5.00;;;;;;;19.71;53.12;100003.00;5049862;28;20033;-36
2022/09/08 02:16:56;;;;;;;7.32;4.90;;;;;;;19.73;53.46;100011.69;5049877;28;20025;-36
2022/09/08 02:19:22;;;;;;;5.40;4.60;;;;;;;19.76;53.11;100004.16;5049554;28;20064;-36
2022/09/08 02:21:47;;;;;;;6.70;4.60;;;;;;;19.80;53.38;100005.25;5050084;28;20025;-36
2022/09/08 02:24:12;;;;;;;9.02;4.72;;;;;;;19.80;53.40;99997.16;5049908;28;20112;-36
2022/09/08 02:26:40;;;;;;;5.57;4.45;;;;;;;19.85;52.90;100003.41;5050266;28;20078;-36
2022/09/08 02:29:08;;;;;;;5.55;4.53;;;;;;;19.78;53.50;100016.34;5049955;28;20025;-36
2022/09/08 02:31:35;;;;;;;8.02;4.70;;;;;;;19.55;53.75;100012.03;5049910;28;20028;-35
2022/09/08 02:34:01;;;;;;;7.32;4.95;;;;;;;19.39;54.26;100012.97;5049527;28;20520;-36
2022/09/08 02:36:27;;;;;;;5.72;4.78;;;;;;;19.58;53.70;100002.63;5049897;28;20024;-37
2022/09/08 02:38:54;;;;;;;9.68;5.00;;;;;;;19.52;53.76;99996.38;5049520;28;20342;-37
2022/09/08 02:41:24;;;;;;;8.07;4.80;;;;;;;19.51;53.69;100003.66;5049633;28;20033;-36
2022/09/08 02:43:49;;;;;;;7.38;4.80;;;;;;;19.35;54.25;100001.88;5049303;28;20291;-36
2022/09/08 02:46:15;;;;;;;6.45;5.00;;;;;;;19.20;54.85;100009.81;5049668;28;20562;-36
2022/09/08 02:48:42;;;;;;;7.53;5.30;;;;;;;19.22;54.71;100002.28;5049362;28;20045;-36
2022/09/08 02:51:09;;;;;;;7.32;4.78;;;;;;;19.23;54.61;99987.72;5049758;28;20029;-39
2022/09/08 02:53:37;;;;;;;9.57;5.00;;;;;;;19.37;54.29;99994.34;5049949;28;20025;-37
2022/09/08 02:56:03;;;;;;;5.82;4.45;;;;;;;19.40;54.29;99996.53;5049471;28;20021;-37
2022/09/08 02:58:29;;;;;;;7.13;5.00;;;;;;;19.48;54.37;100000.66;5049639;28;20021;-36
2022/09/08 03:00:55;;;;;;;8.60;4.82;;;;;;;19.32;54.69;100005.06;5049716;28;20054;-36
2022/09/08 03:03:22;;;;;;;8.85;5.00;;;;;;;19.35;54.49;100007.28;5049253;28;20021;-36
2022/09/08 03:05:48;;;;;;;7.85;5.00;;;;;;;19.43;53.98;100006.81;5049380;28;20021;-36
2022/09/08 03:08:14;;;;;;;8.52;5.20;;;;;;;19.29;54.74;100017.19;5049770;28;20021;-36
2022/09/08 03:10:40;;;;;;;8.60;5.28;;;;;;;19.18;54.72;100006.56;5049603;28;20028;-36
2022/09/08 03:13:06;;;;;;;10.02;7.53;;;;;;;18.63;56.29;100019.09;5049951;28;20017;-36
2022/09/08 03:15:32;;;;;;;10.18;7.78;;;;;;;18.35;57.24;100015.50;5051376;28;20025;-36
2022/09/08 03:17:58;;;;;;;28.42;18.60;;;;;;;18.11;58.12;100026.47;5053333;28;20059;-36
2022/09/08 03:20:25;;;;;;;10.95;5.93;;;;;;;17.85;58.94;100022.56;5053408;28;20105;-35
2022/09/08 03:22:51;;;;;;;10.45;5.80;;;;;;;17.58;59.69;100019.66;5053246;28;20049;-37
2022/09/08 03:25:17;;;;;;;8.65;5.75;;;;;;;17.55;59.89;100029.06;5053621;28;20064;-36
2022/09/08 03:27:43;;;;;;;7.75;5.63;;;;;;;17.59;60.25;100030.19;5053173;28;20051;-37
2022/09/08 03:30:12;;;;;;;11.48;5.90;;;;;;;17.71;60.29;100030.13;5053308;28;20329;-35
2022/09/08 03:32:39;;;;;;;8.43;5.90;;;;;;;17.68;59.79;100025.22;5053122;28;20094;-36
2022/09/08 03:35:09;;;;;;;7.95;5.72;;;;;;;17.64;60.61;100026.75;5052975;28;20036;-36
2022/09/08 03:37:35;;;;;;;9.85;5.68;;;;;;;17.46;61.25;100025.13;5052672;28;20039;-36
2022/09/08 03:40:04;;;;;;;7.82;5.40;;;;;;;17.66;60.51;100027.31;5053076;28;20033;-36
2022/09/08 03:42:37;;;;;;;12.48;9.57;;;;;;;17.62;60.79;100011.94;5053033;28;20029;-35
2022/09/08 03:45:05;;;;;;;6.85;5.60;;;;;;;17.67;59.97;100028.97;5052804;28;20550;-36
2022/09/08 03:47:31;;;;;;;6.72;5.20;;;;;;;17.52;60.40;100009.88;5052796;28;20037;-36
2022/09/08 03:49:57;;;;;;;7.63;5.07;;;;;;;17.75;60.29;100025.88;5068670;28;20028;-36
2022/09/08 03:52:23;;;;;;;5.45;4.82;;;;;;;17.83;59.53;100008.50;5072759;28;20025;-36
2022/09/08 03:54:50;;;;;;;8.40;4.82;;;;;;;18.00;59.53;100030.06;5072908;28;20013;-36
2022/09/08 03:57:18;;;;;;;9.65;5.05;;;;;;;17.96;59.19;100027.03;5072955;28;20048;-36
2022/09/08 03:59:44;;;;;;;7.03;4.65;;;;;;;17.91;59.45;100026.97;5072269;28;20107;-36
2022/09/08 04:02:10;;;;;;;7.28;4.90;;;;;;;17.88;59.29;100027.47;5073144;28;20145;-36
2022/09/08 04:04:36;;;;;;;6.75;4.90;;;;;;;17.83;60.17;100023.84;5072725;28;20036;-36
2022/09/08 04:07:02;;;;;;;6.68;4.90;;;;;;;17.75;60.11;100025.88;5072515;28;20024;-36
2022/09/08 04:09:27;;;;;;;5.78;4.57;;;;;;;17.90;59.64;100035.31;5070642;28;20021;-36
2022/09/08 04:11:53;;;;;;;7.72;4.60;;;;;;;18.23;58.62;100039.03;5072498;28;20027;-35
2022/09/08 04:14:19;;;;;;;6.95;4.60;;;;;;;18.36;58.24;100036.81;5072630;28;20020;-36
2022/09/08 04:16:44;;;;;;;7.85;4.88;;;;;;;18.36;58.11;100031.41;5072689;28;20146;-37
2022/09/08 04:19:11;;;;;;;8.50;4.80;;;;;;;18.56;57.74;100040.84;5072163;28;20044;-37
2022/09/08 04:21:36;;;;;;;11.93;6.50;;;;;;;18.61;57.22;100032.81;5063711;28;20032;-37
2022/09/08 04:24:02;;;;;;;14.00;8.00;;;;;;;18.73;57.12;100030.84;5052086;28;20029;-35
2022/09/08 04:26:28;;;;;;;10.32;7.50;;;;;;;18.93;56.25;100030.28;5051386;28;20028;-37
2022/09/08 04:28:53;;;;;;;10.98;4.93;;;;;;;18.95;56.04;100036.25;5052051;28;20174;-36
2022/09/08 04:31:19;;;;;;;7.50;4.60;;;;;;;19.19;55.79;100036.00;5051421;28;20104;-36
2022/09/08 04:33:45;;;;;;;8.52;4.65;;;;;;;19.34;54.85;100041.53;5051557;28;20013;-37
2022/09/08 04:36:16;;;;;;;12.45;8.82;;;;;;;19.43;54.82;100039.19;5051510;28;20384;-38
2022/09/08 04:38:42;;;;;;;6.72;4.93;;;;;;;19.61;54.06;100038.03;5051427;28;20040;-36
2022/09/08 04:41:14;;;;;;;7.53;4.80;;;;;;;19.86;53.75;100042.84;5051010;28;20021;-36
2022/09/08 04:43:40;;;;;;;8.68;4.40;;;;;;;19.92;53.10;100046.41;5051150;28;20032;-36
2022/09/08 04:46:23;;;;;;;7.90;4.72;;;;;;;20.07;53.46;100045.72;5050834;28;20123;-35
2022/09/08 04:48:48;;;;;;;12.65;4.70;;;;;;;20.45;52.57;100058.13;5050799;28;20021;-36
2022/09/08 04:51:17;;;;;;;6.43;4.40;;;;;;;20.89;51.73;100062.44;5050757;28;20017;-36
2022/09/08 04:53:43;;;;;;;7.00;4.50;;;;;;;21.22;50.53;100054.97;5050963;28;20024;-36
2022/09/08 04:56:10;;;;;;;7.45;4.07;;;;;;;21.43;49.64;100063.97;5050760;28;20028;-36
2022/09/08 04:58:38;;;;;;;7.88;4.43;;;;;;;21.54;49.35;100070.25;5050958;28;20366;-36
2022/09/08 05:01:08;;;;;;;7.07;4.55;;;;;;;21.65;48.18;100072.69;5050841;28;20453;-35
2022/09/08 05:03:34;;;;;;;6.65;4.20;;;;;;;21.74;47.90;100069.44;5050569;28;20033;-36
2022/09/08 05:06:05;;;;;;;7.72;4.40;;;;;;;21.86;47.93;100068.09;5050722;28;20086;-37
2022/09/08 05:08:30;;;;;;;12.73;5.22;;;;;;;21.90;47.48;100075.69;5051073;28;20032;-40
2022/09/08 05:10:56;;;;;;;8.65;4.22;;;;;;;22.17;46.84;100073.50;5050170;28;20364;-36
2022/09/08 05:13:21;;;;;;;10.18;4.40;;;;;;;22.34;46.63;100070.53;5050826;28;20408;-35
2022/09/08 05:15:47;;;;;;;10.82;4.18;;;;;;;22.29;46.94;100075.97;5050675;28;20477;-36
2022/09/08 05:18:12;;;;;;;8.63;4.00;;;;;;;22.54;45.82;100074.28;5049873;28;20186;-36
2022/09/08 05:20:38;;;;;;;9.32;4.07;;;;;;;22.71;45.38;100068.53;5050476;28;20040;-36
2022/09/08 05:23:03;;;;;;;6.93;3.95;;;;;;;22.70;44.83;100069.66;5050221;28;20147;-36
2022/09/08 05:25:28;;;;;;;6.32;3.92;;;;;;;22.95;44.61;100061.41;5050031;28;20537;-35
2022/09/08 05:27:54;;;;;;;5.57;3.90;;;;;;;23.23;43.91;100059.13;5050150;28;20029;-36
2022/09/08 05:30:19;;;;;;;11.40;4.30;;;;;;;23.26;44.14;100066.72;5050152;28;20016;-37
2022/09/08 05:32:45;;;;;;;6.57;4.20;;;;;;;23.64;43.11;100055.34;5050180;28;20045;-37
2022/09/08 05:35:10;;;;;;;10.23;4.68;;;;;;;23.93;42.51;100063.56;5049339;28;20017;-36
2022/09/08 05:37:36;;;;;;;10.40;5.00;;;;;;;24.05;42.27;100066.75;5049375;28;20021;-36
2022/09/08 05:40:01;;;;;;;10.98;5.13;;;;;;;24.21;41.86;100072.84;5049058;28;20021;-36
2022/09/08 05:42:27;;;;;;;12.88;4.57;;;;;;;24.39;41.70;100077.56;5050209;28;20021;-36
2022/09/08 05:44:53;;;;;;;10.80;4.82;;;;;;;24.76;41.25;100072.56;5049728;28;20397;-35
2022/09/08 05:47:18;;;;;;;6.97;3.97;;;;;;;24.87;40.79;100079.50;5049865;28;20029;-37
2022/09/08 05:49:44;;;;;;;13.88;4.63;;;;;;;25.07;39.87;100075.72;5063879;28;20102;-37
2022/09/08 05:52:09;;;;;;;10.30;3.92;;;;;;;25.09;39.59;100070.81;5052308;28;20465;-37
2022/09/08 05:54:35;;;;;;;9.20;4.50;;;;;;;25.26;39.55;100064.06;5049938;28;20455;-37
2022/09/08 05:57:00;;;;;;;9.43;4.30;;;;;;;25.38;39.19;100069.91;5049556;28;20021;-37
2022/09/08 05:59:26;;;;;;;11.35;4.28;;;;;;;25.47;38.95;100065.38;5049631;28;20522;-37
2022/09/08 06:01:51;;;;;;;11.93;4.20;;;;;;;25.61;38.68;100056.47;5048437;28;20102;-37
2022/09/08 06:04:18;;;;;;;8.30;4.60;;;;;;;25.74;38.41;100050.25;5038762;28;20108;-37
2022/09/08 06:06:44;;;;;;;7.68;4.20;;;;;;;26.03;37.39;100057.47;5050130;28;20365;-35
2022/09/08 06:09:10;;;;;;;8.80;4.25;;;;;;;26.25;36.92;100057.59;5049594;28;20470;-37
2022/09/08 06:11:35;;;;;;;7.10;4.60;;;;;;;26.31;37.11;100056.41;5049670;28;20161;-37
2022/09/08 06:14:02;;;;;;;7.93;4.38;;;;;;;26.57;36.43;100063.31;5050023;28;20056;-37
2022/09/08 06:16:29;;;;;;;11.18;4.25;;;;;;;26.50;36.49;100056.34;5050129;28;20029;-37
2022/09/08 06:18:57;;;;;;;9.80;4.32;;;;;;;26.68;36.33;100060.09;5049752;28;20175;-37
2022/09/08 06:21:25;;;;;;;4.67;3.50;;;;;;;26.88;35.66;100061.63;5049562;28;20515;-36
2022/09/08 06:23:53;;;;;;;7.88;3.58;;;;;;;27.23;35.13;100058.44;5049660;28;20025;-36
2022/09/08 06:27:00;;;;;;;9.32;4.43;;;;;;;27.30;35.16;100067.84;5049749;28;20079;-36
2022/09/08 06:29:46;;;;;;;5.65;3.90;;;;;;;27.51;34.52;100070.09;5049463;28;20100;-36
2022/09/08 06:32:24;;;;;;;7.63;4.05;;;;;;;27.51;34.92;100070.09;5049681;28;20064;-37
2022/09/08 06:34:54;;;;;;;10.07;5.45;;;;;;;27.50;34.45;100071.22;5049486;28;20029;-36
2022/09/08 06:37:42;;;;;;;7.65;4.20;;;;;;;27.47;34.60;100066.34;5049739;28;20089;-36
2022/09/08 06:40:14;;;;;;;10.80;5.20;;;;;;;27.54;34.67;100063.22;5049402;28;20519;-37
2022/09/08 06:42:59;;;;;;;8.02;4.60;;;;;;;27.82;34.44;100072.91;5049792;28;20576;-37
2022/09/08 06:45:29;;;;;;;7.13;4.90;;;;;;;27.82;33.96;100072.13;5049880;28;20385;-37
2022/09/08 06:48:32;;;;;;;8.77;5.10;;;;;;;27.98;33.85;100064.34;5049671;28;20045;-37
2022/09/08 06:51:13;;;;;;;5.90;3.90;;;;;;;27.94;33.82;100061.44;5032221;28;20037;-37
2022/09/08 06:53:43;;;;;;;13.68;4.70;;;;;;;28.25;33.51;100064.19;5033641;28;20382;-37
2022/09/08 06:56:14;;;;;;;7.03;4.40;;;;;;;28.34;33.58;100064.22;5034745;28;20032;-36
2022/09/08 06:58:41;;;;;;;8.38;4.38;;;;;;;28.54;32.61;100068.38;5047086;28;20072;-36
2022/09/08 07:01:18;;;;;;;7.60;4.28;;;;;;;28.39;32.68;100068.78;5053453;28;20060;-38
2022/09/08 07:04:29;;;;;;;6.47;4.20;;;;;;;28.56;32.40;100065.31;5038033;28;20473;-37
2022/09/08 07:07:15;;;;;;;;;;;;;;;27.97;33.22;100062.72;5034600;28;20025;-37
2022/09/08 07:10:03;;;;;;;7.45;4.47;;;;;;;27.58;33.80;100067.75;5053520;28;19915;-37
2022/09/08 07:13:12;;;;;;;11.32;4.47;;;;;;;27.81;33.78;100071.28;5041189;28;20072;-36
2022/09/08 07:15:56;;;;;;;9.48;4.40;;;;;;;28.30;33.08;100062.44;5033735;28;20038;-36
2022/09/08 07:18:28;;;;;;;6.82;4.65;;;;;;;28.38;32.77;100069.88;5032496;28;20049;-36
2022/09/08 07:21:03;;;;;;;8.77;4.45;;;;;;;28.44;32.74;100066.72;5034060;28;20032;-36
2022/09/08 07:23:36;;;;;;;7.45;4.00;;;;;;;28.41;32.77;100072.78;5052564;28;20048;-37
2022/09/08 07:26:40;;;;;;;5.45;4.10;;;;;;;28.52;32.60;100069.81;5052826;28;20029;-36
2022/09/08 07:29:18;;;;;;;5.90;4.38;;;;;;;28.30;33.06;100060.50;5048736;28;20493;-36
2022/09/08 07:31:47;;;;;;;10.30;5.50;;;;;;;28.17;32.88;100073.16;5052201;28;20044;-37
2022/09/08 07:34:25;;;;;;;9.07;3.95;;;;;;;28.30;32.63;100065.97;5052956;28;20476;-37
2022/09/08 07:37:13;;;;;;;11.15;4.50;;;;;;;28.63;32.24;100066.47;5052831;28;20039;-37
2022/09/08 07:39:50;;;;;;;5.93;3.78;;;;;;;28.78;32.25;100075.38;5052707;28;20056;-37
2022/09/08 07:42:16;;;;;;;7.93;4.93;;;;;;;29.07;32.26;100074.78;5052821;28;20029;-37
2022/09/08 07:44:42;;;;;;;12.95;4.30;;;;;;;29.17;32.08;100058.09;5053216;28;20039;-37
2022/09/08 07:47:19;;;;;;;11.30;4.10;;;;;;;29.46;31.88;100077.78;5052835;28;20032;-38
2022/09/08 07:50:15;;;;;;;6.60;4.00;;;;;;;29.49;31.25;100075.19;5067179;28;20059;-37
2022/09/08 07:53:11;;;;;;;9.38;3.85;;;;;;;29.61;31.45;100075.34;5072659;28;20028;-37
2022/09/08 07:55:42;;;;;;;10.77;4.50;;;;;;;29.49;31.68;100079.88;5073129;28;20039;-37
2022/09/08 07:58:25;;;;;;;11.75;5.00;;;;;;;29.61;31.20;100074.56;5072969;28;20035;-37
2022/09/08 08:01:11;;;;;;;8.68;4.00;;;;;;;29.92;30.82;100071.63;5072346;28;20040;-37
2022/09/08 08:03:58;;;;;;;5.43;3.40;;;;;;;30.13;30.65;100079.19;5072472;28;20027;-37
2022/09/08 08:06:40;;;;;;;13.93;6.03;;;;;;;30.11;30.60;100081.44;5072447;28;20032;-37
2022/09/08 08:09:37;;;;;;;7.85;4.88;;;;;;;29.86;30.47;100067.47;5072302;28;20468;-37
2022/09/08 08:12:14;;;;;;;9.10;3.80;;;;;;;30.14;30.64;100073.38;5072458;28;20020;-37
2022/09/08 08:14:47;;;;;;;6.43;3.70;;;;;;;30.25;30.67;100070.25;5072002;28;20047;-37
2022/09/08 08:17:13;;;;;;;7.35;4.03;;;;;;;30.18;30.18;100073.53;5072095;28;20032;-35
2022/09/08 08:20:02;;;;;;;8.52;4.65;;;;;;;29.08;31.78;100075.63;5072186;28;20032;-36
2022/09/08 08:22:56;;;;;;;7.07;3.67;;;;;;;29.28;31.38;100072.28;5056008;28;20119;-36
2022/09/08 08:25:32;;;;;;;5.80;3.88;;;;;;;29.73;30.72;100068.44;5052142;28;20087;-38
2022/09/08 08:28:00;;;;;;;7.20;4.00;;;;;;;29.81;31.42;100064.88;5052144;28;20063;-37
2022/09/08 08:30:27;;;;;;;4.18;3.45;;;;;;;29.77;31.61;100063.91;5051772;28;20053;-36
2022/09/08 08:33:08;;;;;;;8.75;4.10;;;;;;;30.18;30.88;100054.31;5051819;28;20082;-37
2022/09/08 08:35:54;;;;;;;10.60;4.80;;;;;;;30.28;30.10;100056.69;5051149;28;20112;-37
2022/09/08 08:38:31;;;;;;;7.68;4.15;;;;;;;30.02;31.02;100054.84;5051376;28;20590;-37
2022/09/08 08:40:59;;;;;;;7.53;4.10;;;;;;;30.09;31.06;100045.31;5051151;28;20025;-37
2022/09/08 08:43:46;;;;;;;7.65;3.75;;;;;;;30.17;30.69;100039.78;5051218;28;20031;-37
2022/09/08 08:46:14;;;;;;;4.78;3.75;;;;;;;30.35;29.97;100046.06;5051464;28;20021;-37
2022/09/08 08:48:48;;;;;;;;;;;;;;;30.65;29.70;100048.81;5057119;28;20412;-37
2022/09/08 08:51:19;;;;;;;3.75;3.35;;;;;;;30.42;30.23;100044.72;5070780;28;19912;-36
2022/09/08 08:53:56;;;;;;;6.43;3.67;;;;;;;30.54;29.83;100034.66;5070990;28;20012;-36
2022/09/08 08:56:45;;;;;;;5.68;3.53;;;;;;;30.55;30.61;100027.22;5070893;28;20047;-37
2022/09/08 08:59:38;;;;;;;7.35;3.80;;;;;;;30.55;29.89;100029.97;5070935;28;20064;-37
2022/09/08 09:02:22;;;;;;;7.72;3.80;;;;;;;30.45;29.93;100027.59;5071251;28;20520;-37
2022/09/08 09:05:06;;;;;;;7.38;3.80;;;;;;;30.44;29.78;100020.50;5071559;28;20028;-37
2022/09/08 09:07:55;;;;;;;11.98;3.70;;;;;;;30.39;29.96;100014.06;5071178;28;20492;-37
2022/09/08 09:10:59;;;;;;;4.85;3.85;;;;;;;30.45;30.19;100020.16;5071152;28;20023;-36
2022/09/08 09:13:36;;;;;;;6.78;3.70;;;;;;;30.40;30.35;100015.66;5028463;28;20025;-37
2022/09/08 09:16:20;;;;;;;4.68;3.45;;;;;;;30.51;30.22;100007.84;5066030;28;20035;-37
2022/09/08 09:19:04;;;;;;;8.10;3.67;;;;;;;30.51;29.95;100005.13;5070042;28;20477;-37
2022/09/08 09:21:57;;;;;;;13.10;3.92;;;;;;;30.56;30.23;100001.38;5062837;28;20017;-36
2022/09/08 09:25:00;;;;;;;6.90;3.58;;;;;;;30.52;29.83;99994.94;5050548;28;20056;-36
2022/09/08 09:27:37;;;;;;;6.78;3.72;;;;;;;30.31;29.53;99986.59;5051015;28;20043;-37
2022/09/08 09:30:12;;;;;;;5.95;3.65;;;;;;;30.37;29.80;99985.34;5050483;28;20104;-37
2022/09/08 09:32:51;;;;;;;7.97;3.92;;;;;;;30.63;29.40;99979.69;5051329;28;20035;-36
2022/09/08 09:35:54;;;;;;;6.95;3.83;;;;;;;30.58;29.29;99974.41;5050555;28;20590;-36
2022/09/08 09:38:56;;;;;;;7.75;4.07;;;;;;;30.43;29.52;99973.03;5050510;28;20123;-37
2022/09/08 09:41:55;;;;;;;6.95;4.30;;;;;;;30.68;29.06;99981.44;5037210;28;20040;-37
2022/09/08 09:44:42;;;;;;;5.88;3.90;;;;;;;30.69;28.79;99981.13;5051108;28;20036;-37
2022/09/08 09:47:21;;;;;;;7.05;3.40;;;;;;;30.28;29.73;99973.56;5050681;28;20103;-37
2022/09/08 09:50:12;;;;;;;4.47;3.50;;;;;;;30.41;28.99;99972.56;5049866;28;20086;-37
2022/09/08 09:52:58;;;;;;;6.80;3.20;;;;;;;29.61;30.21;99964.91;5050258;28;20021;-37
2022/09/08 09:55:58;;;;;;;6.05;3.72;;;;;;;29.76;30.05;99953.44;5050316;28;20029;-37
2022/09/08 09:58:36;;;;;;;10.57;3.50;;;;;;;29.96;30.39;99959.31;5050059;28;20032;-37
2022/09/08 10:01:01;;;;;;;9.35;3.88;;;;;;;30.07;30.43;99954.28;5049255;28;20398;-35
2022/09/08 10:03:48;;;;;;;5.80;3.50;;;;;;;30.02;29.97;99958.84;5050408;28;20035;-38
2022/09/08 10:06:33;;;;;;;7.00;3.30;;;;;;;30.28;30.20;99957.09;5050221;28;20059;-36
2022/09/08 10:09:18;;;;;;;5.97;3.40;;;;;;;30.48;29.84;99952.81;5050096;28;20037;-36
2022/09/08 10:12:04;;;;;;;8.88;3.55;;;;;;;30.78;29.47;99962.63;5049828;28;20025;-37
2022/09/08 10:14:58;;;;;;;5.10;3.70;;;;;;;30.69;29.31;99953.66;5049790;28;20013;-38
2022/09/08 10:17:41;;;;;;;8.15;3.15;;;;;;;30.22;30.07;99940.00;5049951;28;20057;-37
2022/09/08 10:20:24;;;;;;;3.88;3.25;;;;;;;30.26;29.44;99942.91;5049822;28;20025;-37
2022/09/08 10:23:30;;;;;;;6.05;3.38;;;;;;;30.08;29.81;99940.22;5049487;28;20044;-37
2022/09/08 10:25:56;;;;;;;4.68;3.70;;;;;;;30.08;30.28;99931.19;5007818;28;20666;-37
2022/09/08 10:28:46;;;;;;;6.45;3.58;;;;;;;29.94;30.94;99918.50;5041067;28;20116;-36
2022/09/08 10:31:34;;;;;;;7.93;3.63;;;;;;;30.42;30.08;99915.72;5049847;28;20087;-36
2022/09/08 10:34:19;;;;;;;6.22;3.50;;;;;;;30.66;29.40;99920.56;5049322;28;20434;-37
2022/09/08 10:37:01;;;;;;;4.65;3.65;;;;;;;30.19;30.08;99916.75;5050122;28;20067;-37
2022/09/08 10:39:47;;;;;;;7.03;3.70;;;;;;;30.10;29.94;99907.81;5049629;28;20397;-36
2022/09/08 10:42:37;;;;;;;5.72;3.60;;;;;;;29.44;31.50;99899.94;5049931;28;20029;-37
2022/09/08 10:45:11;;;;;;;4.78;3.50;;;;;;;29.56;31.49;99891.03;5049612;28;20032;-37
2022/09/08 10:48:27;;;;;;;4.72;3.63;;;;;;;29.98;30.85;99889.28;5050060;28;20556;-37
2022/09/08 10:51:32;;;;;;;8.27;3.85;;;;;;;29.79;30.93;99897.91;5070183;28;20031;-37
2022/09/08 10:54:00;;;;;;;6.72;3.70;;;;;;;30.23;30.81;99900.44;5069945;28;20028;-37
2022/09/08 10:56:29;;;;;;;5.97;3.92;;;;;;;30.27;30.46;99893.16;5069747;28;20046;-37
2022/09/08 10:59:16;;;;;;;6.18;3.60;;;;;;;29.85;30.88;99879.34;5069926;28;20040;-37
2022/09/08 11:01:54;;;;;;;5.00;3.60;;;;;;;29.82;30.25;99880.81;5069453;28;20544;-36
2022/09/08 11:04:51;;;;;;;8.57;3.47;;;;;;;30.23;29.93;99874.94;5070162;28;20021;-36
2022/09/08 11:07:37;;;;;;;5.93;3.45;;;;;;;30.14;29.97;99867.59;5069571;28;20506;-36
2022/09/08 11:10:15;;;;;;;6.60;3.63;;;;;;;30.26;29.59;99866.88;5069864;28;20029;-36
2022/09/08 11:12:56;;;;;;;4.35;3.53;;;;;;;30.12;30.42;99863.53;5069773;28;20107;-37
2022/09/08 11:16:03;;;;;;;8.18;3.80;;;;;;;29.93;31.69;99864.78;5069658;28;20039;-37
2022/09/08 11:18:37;;;;;;;8.25;3.30;;;;;;;30.09;30.27;99853.25;5055233;28;20053;-36
2022/09/08 11:21:08;;;;;;;5.13;3.10;;;;;;;29.85;30.48;99849.16;5065354;28;20428;-36
2022/09/08 11:23:54;;;;;;;6.47;2.90;;;;;;;30.68;29.21;99849.63;5048275;28;20113;-37
2022/09/08 11:26:30;;;;;;;4.78;3.20;;;;;;;30.58;29.96;99837.91;5049570;28;20052;-36
2022/09/08 11:29:34;;;;;;;5.90;3.17;;;;;;;30.77;30.02;99836.63;5049350;28;20104;-37
2022/09/08 11:32:19;;;;;;;4.35;3.40;;;;;;;31.00;30.14;99834.34;5028564;28;20138;-37
2022/09/08 11:35:15;;;;;;;4.60;3.40;;;;;;;31.11;29.40;99832.78;5049496;28;20116;-37
2022/09/08 11:38:03;;;;;;;5.07;3.17;;;;;;;30.23;30.71;99828.31;5052977;28;20456;-37
2022/09/08 11:41:06;;;;;;;5.65;3.30;;;;;;;30.85;29.77;99823.97;5046307;28;20123;-37
2022/09/08 11:43:57;;;;;;;7.70;3.42;;;;;;;30.45;29.72;99827.22;5053277;28;20088;-37
2022/09/08 11:46:29;;;;;;;4.75;2.92;;;;;;;30.46;29.73;99820.56;5045876;28;20358;-37
2022/09/08 11:49:13;;;;;;;4.22;3.30;;;;;;;30.79;29.58;99826.13;5053038;28;20029;-36
2022/09/08 11:51:53;;;;;;;5.55;3.30;;;;;;;30.82;29.46;99806.19;5053062;28;20025;-36
2022/09/08 11:54:41;;;;;;;4.93;3.55;;;;;;;30.81;29.94;99812.84;5053378;28;20032;-36
2022/09/08 11:57:30;;;;;;;4.90;3.38;;;;;;;30.47;30.19;99820.25;5052798;28;20086;-36
2022/09/08 12:00:17;;;;;;;4.50;3.10;;;;;;;30.93;29.46;99806.63;5052670;28;20087;-38
2022/09/08 12:02:57;;;;;;;4.03;3.50;;;;;;;30.52;30.44;99806.31;5052635;28;20056;-38
2022/09/08 12:05:48;;;;;;;5.75;3.20;;;;;;;30.56;29.69;99800.97;5052503;28;20040;-36
2022/09/08 12:08:44;;;;;;;5.22;3.28;;;;;;;30.87;29.95;99797.75;5052627;28;20044;-36